Airfield :







YOU CAN JOIN US ON...

 
LOGIN :

Register | Disclaimer

   EN    FR    IT 

 









Legend :    VFR   Marginal VFR   IFR   Intensive IFR   Very Intensive IFR
Visi :
Ceiling :
>= 8 km
>= 3000ft
5 to 8 km
1000 to 3000 ft
1500m to 5 km
500 to 1000 ft
800 to 1500m
200 to 500 ft
< 800m
< 200 ft
Symbols :   Thunderstorms  Fog  Heavy snow  Heavy precipitations  Wind > 20 kt






- Airport Elevation : 92 ft
- IATA code : YZX


CYZX - CFB Greenwood

CURRENT METAR :
  • 010530Z 36003KT 12SM OVC008 00/M01 A2991 RMK SC8 SLP131

EXPIRED METARs :
  • 010500Z 03002KT 15SM OVC010 M00/M01 A2991 RMK SC8 SLP129
  • 010400Z 00000KT 10SM BKN013 OVC025 M00/M01 A2993 RMK SC6SC2 SLP136
  • 010347Z 10002KT 10SM BKN013 OVC025 M00/M01 A2993 RMK SC6SC2 SLP137
  • 010300Z 04002KT 8SM -FZDZ -SN FEW015 BKN025 OVC050 M00/M01 A2993 RMK SC2SC2SC3 PCPN VRY LGT SLP138
  • 010236Z 05003KT 7SM -FZDZ -SN FEW015 BKN025 OVC046 M00/M01 A2994 RMK SC2SC2SC3 SLP141

TAF TAF CYZX
Valid from the 01 at 06:00 until the 02 at 06:00 UTC


010531Z 0106/0206 04005KT P6SM BKN012 OVC025
TEMPO 0106/0109 6SM -SHSN BR OVC009
FM010900 02005KT 2SM -SN OVC008
TEMPO 0109/0113 4SM -SNRA BR OVC012
PROB30 0109/0113 4SM -PL BR
FM011300 03005KT 4SM -RA -DZ BR OVC008
FM011600 02008KT 6SM -DZ BR OVC010
FM012300 03005KT 4SM -DZ BR OVC008
FM020300 06005KT 1/2SM -DZ FG VV005 RMK NXT FCST BY 011200Z



MET'MAP, your aeronautical weather chart ! - Copyright ORBIFLY December 2007 - Disclaimer

ORBIFLY MET'MAP TEAM :

Programming & Development : Alexandra Zaïnal
Concept & original design : Baudouin d'Aumeries
Assistance for programming : Marc-Olivier Méhu
Technical & hardware support : Manuel Goepfert

Contact : metmap@orbifly.com




SOURCES & CREDITS :

   NOAA